createdAt,value
2022-11-21T00:01:19.298Z,3.88
2022-11-21T00:03:47.247Z,3.72
2022-11-21T00:06:15.536Z,4.43
2022-11-21T00:08:45.270Z,3.13
2022-11-21T00:11:13.099Z,5.00
2022-11-21T00:13:40.756Z,4.70
2022-11-21T00:16:12.675Z,6.72
2022-11-21T00:21:19.115Z,4.72
2022-11-21T00:23:47.774Z,3.75
2022-11-21T00:26:16.678Z,5.53
2022-11-21T00:28:44.629Z,3.50
2022-11-21T00:31:23.395Z,4.03
2022-11-21T00:33:50.661Z,4.40
2022-11-21T00:36:18.168Z,5.15
2022-11-21T00:38:45.476Z,4.82
2022-11-21T00:41:12.955Z,2.92
2022-11-21T00:43:40.238Z,3.63
2022-11-21T00:46:07.554Z,6.55
2022-11-21T00:48:34.812Z,6.93
2022-11-21T00:51:02.158Z,4.68
2022-11-21T00:53:30.102Z,6.05
2022-11-21T00:55:57.888Z,4.38
2022-11-21T00:58:25.249Z,4.07
2022-11-21T01:00:52.945Z,4.15
2022-11-21T01:03:20.554Z,4.63
2022-11-21T01:05:48.016Z,4.63
2022-11-21T01:08:15.247Z,6.22
2022-11-21T01:10:42.544Z,6.72
2022-11-21T01:13:09.813Z,6.47
2022-11-21T01:15:37.071Z,4.28
2022-11-21T01:18:04.427Z,6.25
2022-11-21T01:20:31.939Z,6.60
2022-11-21T01:22:59.301Z,5.35
2022-11-21T01:25:26.942Z,5.32
2022-11-21T01:27:54.238Z,5.25
2022-11-21T01:30:21.564Z,7.43
2022-11-21T01:32:50.224Z,5.43
2022-11-21T01:35:18.145Z,6.47
2022-11-21T01:37:49.646Z,3.53
2022-11-21T01:40:17.303Z,7.57
2022-11-21T01:43:15.273Z,5.70
2022-11-21T01:45:53.028Z,6.60
2022-11-21T01:48:24.714Z,4.65
2022-11-21T01:50:52.445Z,6.63
2022-11-21T01:53:20.126Z,9.68
2022-11-21T01:55:47.354Z,6.95
2022-11-21T01:58:14.883Z,4.72
2022-11-21T02:00:45.707Z,5.50
2022-11-21T02:03:19.521Z,5.93
2022-11-21T02:05:47.596Z,5.28
2022-11-21T02:08:19.491Z,7.13
2022-11-21T02:11:03.068Z,8.10
2022-11-21T02:13:30.345Z,5.07
2022-11-21T02:15:58.394Z,7.45
2022-11-21T02:18:25.653Z,7.22
2022-11-21T02:21:00.762Z,5.40
2022-11-21T02:23:45.531Z,10.35
2022-11-21T02:26:13.444Z,6.88
2022-11-21T02:28:41.399Z,9.23
2022-11-21T02:31:08.801Z,6.32
2022-11-21T02:33:36.192Z,6.32
2022-11-21T02:36:03.921Z,5.70
2022-11-21T02:38:37.792Z,4.40
2022-11-21T02:41:26.680Z,6.43
2022-11-21T02:44:08.694Z,6.63
2022-11-21T02:46:36.304Z,4.68
2022-11-21T02:49:08.438Z,9.35
2022-11-21T02:51:35.720Z,4.03
2022-11-21T02:54:03.246Z,5.60
2022-11-21T02:56:30.662Z,5.00
2022-11-21T02:58:58.025Z,4.22
2022-11-21T03:01:25.353Z,4.82
2022-11-21T03:03:52.602Z,5.70
2022-11-21T03:06:20.100Z,5.22
2022-11-21T03:08:47.321Z,4.10
2022-11-21T03:11:14.553Z,5.85
2022-11-21T03:13:41.747Z,5.45
2022-11-21T03:16:08.996Z,5.72
2022-11-21T03:18:36.253Z,6.38
2022-11-21T03:21:03.938Z,5.15
2022-11-21T03:23:31.207Z,7.55
2022-11-21T03:26:00.339Z,4.95
2022-11-21T03:28:27.606Z,7.25
2022-11-21T03:30:54.872Z,6.25
2022-11-21T03:33:22.117Z,7.60
2022-11-21T03:35:49.419Z,5.15
2022-11-21T03:38:16.741Z,5.75
2022-11-21T03:40:43.989Z,8.30
2022-11-21T03:43:11.405Z,9.82
2022-11-21T03:45:38.764Z,6.20
2022-11-21T03:48:06.379Z,3.83
2022-11-21T03:50:33.669Z,4.57
2022-11-21T03:53:00.990Z,6.53
2022-11-21T03:55:28.274Z,3.85
2022-11-21T03:57:55.573Z,8.52
2022-11-21T04:00:23.176Z,6.57
2022-11-21T04:02:50.360Z,7.53
2022-11-21T04:05:17.705Z,5.13
2022-11-21T04:07:46.301Z,7.05
2022-11-21T04:10:13.640Z,6.85
2022-11-21T04:12:40.902Z,3.80
2022-11-21T04:15:13.483Z,6.35
2022-11-21T04:17:41.291Z,5.43
2022-11-21T04:20:09.876Z,11.30
2022-11-21T04:22:37.206Z,6.03
2022-11-21T04:25:04.722Z,4.32
2022-11-21T04:27:32.019Z,7.55
2022-11-21T04:29:59.552Z,6.95
2022-11-21T04:32:26.838Z,5.53
2022-11-21T04:34:54.234Z,7.32
2022-11-21T04:37:21.515Z,7.25
2022-11-21T04:39:48.810Z,7.00
2022-11-21T04:42:15.986Z,12.30
2022-11-21T04:44:43.290Z,4.78
2022-11-21T04:47:10.605Z,5.25
2022-11-21T04:49:37.905Z,6.57
2022-11-21T04:52:05.335Z,8.07
2022-11-21T04:54:32.957Z,4.65
2022-11-21T04:57:00.275Z,8.20
2022-11-21T04:59:27.731Z,7.57
2022-11-21T05:01:55.063Z,3.95
2022-11-21T05:04:22.323Z,3.53
2022-11-21T05:06:49.541Z,4.78
2022-11-21T05:09:16.839Z,5.90
2022-11-21T05:12:02.517Z,3.40
2022-11-21T05:14:30.241Z,3.90
2022-11-21T05:16:57.707Z,6.97
2022-11-21T05:19:24.899Z,4.50
2022-11-21T05:21:52.199Z,6.60
2022-11-21T05:24:19.615Z,5.28
2022-11-21T05:26:46.870Z,4.38
2022-11-21T05:29:14.193Z,6.80
2022-11-21T05:31:41.466Z,6.13
2022-11-21T05:34:09.086Z,5.57
2022-11-21T05:36:36.395Z,5.65
2022-11-21T05:39:03.778Z,4.20
2022-11-21T05:41:31.290Z,4.55
2022-11-21T05:43:58.467Z,4.82
2022-11-21T05:46:26.535Z,5.20
2022-11-21T05:48:55.329Z,6.13
2022-11-21T05:51:23.031Z,2.95
2022-11-21T05:53:50.319Z,2.65
2022-11-21T05:56:19.601Z,2.70
2022-11-21T05:58:46.978Z,3.25
2022-11-21T06:01:15.477Z,2.22
2022-11-21T06:03:43.433Z,4.32
2022-11-21T06:06:19.635Z,6.53
2022-11-21T06:08:49.554Z,2.88
2022-11-21T06:11:17.458Z,2.80
2022-11-21T06:13:44.896Z,2.92
2022-11-21T06:16:15.195Z,1.90
2022-11-21T06:18:44.593Z,2.65
2022-11-21T06:21:20.860Z,3.03
2022-11-21T06:23:50.799Z,4.28
2022-11-21T06:26:20.476Z,2.90
2022-11-21T06:28:48.537Z,3.35
2022-11-21T06:31:15.801Z,3.38
2022-11-21T06:33:44.210Z,2.47
2022-11-21T06:36:16.949Z,5.32
2022-11-21T06:38:45.411Z,3.03
2022-11-21T06:41:24.427Z,2.28
2022-11-21T06:43:51.892Z,3.05
2022-11-21T06:46:19.506Z,5.05
2022-11-21T06:48:46.810Z,3.15
2022-11-21T06:51:19.252Z,3.67
2022-11-21T06:53:48.193Z,4.30
2022-11-21T06:56:16.006Z,4.45
2022-11-21T06:58:43.306Z,4.30
2022-11-21T07:01:11.124Z,4.13
2022-11-21T07:03:38.427Z,4.55
2022-11-21T07:06:06.947Z,3.53
2022-11-21T07:08:36.185Z,6.45
2022-11-21T07:13:53.533Z,2.60
2022-11-21T07:16:21.201Z,4.25
2022-11-21T07:18:48.529Z,3.50
2022-11-21T07:21:15.852Z,4.30
2022-11-21T07:23:43.130Z,5.63
2022-11-21T07:26:10.938Z,6.93
2022-11-21T07:28:38.683Z,6.43
2022-11-21T07:31:11.768Z,7.72
2022-11-21T07:33:40.741Z,4.03
2022-11-21T07:36:08.264Z,5.53
2022-11-21T07:38:35.496Z,4.85
2022-11-21T07:41:02.902Z,5.18
2022-11-21T07:43:30.146Z,4.93
2022-11-21T07:45:57.453Z,5.50
2022-11-21T07:48:24.694Z,6.10
2022-11-21T07:50:51.979Z,7.97
2022-11-21T07:53:19.299Z,8.55
2022-11-21T07:55:46.561Z,6.63
2022-11-21T07:58:16.591Z,7.13
2022-11-21T08:00:43.932Z,8.70
2022-11-21T08:03:12.717Z,6.20
2022-11-21T08:05:41.933Z,7.72
2022-11-21T08:08:10.383Z,7.63
2022-11-21T08:10:42.696Z,4.22
2022-11-21T08:13:10.656Z,7.35
2022-11-21T08:15:38.320Z,5.90
2022-11-21T08:18:13.970Z,5.18
2022-11-21T08:20:41.883Z,6.97
2022-11-21T08:23:10.405Z,4.88
2022-11-21T08:25:39.183Z,6.00
2022-11-21T08:28:07.866Z,5.82
2022-11-21T08:30:35.582Z,9.48
2022-11-21T08:33:03.738Z,7.10
2022-11-21T08:35:31.133Z,5.82
2022-11-21T08:38:02.306Z,7.05
2022-11-21T08:40:31.659Z,6.25
2022-11-21T08:43:00.097Z,5.28
2022-11-21T08:45:27.831Z,9.02
2022-11-21T08:47:55.522Z,9.45
2022-11-21T08:50:23.838Z,5.68
2022-11-21T08:52:51.639Z,7.55
2022-11-21T08:55:18.933Z,4.25
2022-11-21T08:57:46.269Z,5.57
2022-11-21T09:00:14.234Z,7.57
2022-11-21T09:02:41.540Z,5.85
2022-11-21T09:05:09.606Z,3.78
2022-11-21T09:07:37.443Z,7.57
2022-11-21T09:10:05.173Z,3.63
2022-11-21T09:12:32.421Z,5.05
2022-11-21T09:15:18.147Z,5.15
2022-11-21T09:18:03.517Z,11.40
2022-11-21T09:20:38.795Z,4.55
2022-11-21T09:23:07.222Z,4.15
2022-11-21T09:25:34.529Z,3.42
2022-11-21T09:28:07.480Z,3.83
2022-11-21T09:30:35.289Z,3.85
2022-11-21T09:33:04.435Z,6.65
2022-11-21T09:35:32.120Z,6.00
2022-11-21T09:37:59.739Z,5.47
2022-11-21T09:40:27.555Z,6.50
2022-11-21T09:42:54.805Z,4.80
2022-11-21T09:45:30.371Z,7.32
2022-11-21T09:47:57.657Z,5.68
2022-11-21T09:50:53.614Z,5.13
2022-11-21T09:53:32.458Z,5.07
2022-11-21T09:56:06.562Z,5.72
2022-11-21T09:58:44.422Z,7.72
2022-11-21T10:01:16.328Z,5.55
2022-11-21T10:06:20.003Z,8.38
2022-11-21T10:09:27.728Z,7.25
2022-11-21T10:12:40.079Z,6.05
2022-11-21T10:15:26.088Z,8.25
2022-11-21T10:18:34.668Z,6.85
2022-11-21T10:21:13.866Z,7.68
2022-11-21T10:23:41.008Z,7.15
2022-11-21T10:26:22.215Z,11.10
2022-11-21T10:28:54.471Z,5.72
2022-11-21T10:31:23.077Z,4.80
2022-11-21T10:33:53.046Z,4.75
2022-11-21T10:36:25.717Z,6.43
2022-11-21T10:38:58.850Z,6.22
2022-11-21T10:41:57.887Z,6.70
2022-11-21T10:44:50.389Z,7.22
2022-11-21T10:47:29.005Z,5.60
2022-11-21T10:50:33.687Z,6.53
2022-11-21T10:53:34.855Z,9.40
2022-11-21T10:56:13.307Z,4.70
2022-11-21T10:58:51.607Z,6.93
2022-11-21T11:01:26.064Z,5.85
2022-11-21T11:04:27.226Z,5.47
2022-11-21T11:06:56.322Z,5.53
2022-11-21T11:09:28.383Z,4.57
2022-11-21T11:12:21.452Z,4.72
2022-11-21T11:14:54.529Z,7.90
2022-11-21T11:17:34.250Z,5.85
2022-11-21T11:20:26.452Z,3.08
2022-11-21T11:25:22.726Z,5.82
2022-11-21T11:27:50.048Z,7.47
2022-11-21T11:30:19.394Z,2.95
2022-11-21T11:32:47.971Z,5.82
2022-11-21T11:35:18.029Z,4.93
2022-11-21T11:38:04.818Z,4.20
2022-11-21T11:40:37.040Z,5.10
2022-11-21T11:43:41.780Z,3.92
2022-11-21T11:46:59.584Z,4.55
2022-11-21T11:49:55.848Z,3.80
2022-11-21T11:52:28.124Z,5.55
2022-11-21T11:55:08.533Z,4.72
2022-11-21T11:57:37.826Z,5.70
2022-11-21T12:00:33.321Z,4.35
2022-11-21T12:03:19.388Z,3.25
2022-11-21T12:06:12.988Z,4.38
2022-11-21T12:08:58.626Z,5.15
2022-11-21T12:11:51.080Z,3.55
2022-11-21T12:15:02.094Z,3.22
2022-11-21T12:17:41.744Z,5.85
2022-11-21T12:20:20.922Z,5.72
2022-11-21T12:22:51.121Z,9.77
2022-11-21T12:25:21.825Z,2.95
2022-11-21T12:27:53.714Z,4.80
2022-11-21T12:30:44.596Z,5.40
2022-11-21T12:33:18.295Z,5.80
2022-11-21T12:35:54.776Z,6.97
2022-11-21T12:38:47.027Z,5.70
2022-11-21T12:41:54.934Z,5.63
2022-11-21T12:44:52.405Z,6.78
2022-11-21T12:48:10.970Z,6.28
2022-11-21T12:51:32.802Z,6.13
2022-11-21T12:54:38.857Z,5.50
2022-11-21T12:57:18.968Z,8.35
2022-11-21T13:00:09.135Z,8.02
2022-11-21T13:03:14.254Z,5.45
2022-11-21T13:05:47.065Z,6.63
2022-11-21T13:08:37.647Z,5.22
2022-11-21T13:11:30.805Z,7.70
2022-11-21T13:14:45.575Z,7.00
2022-11-21T13:17:17.598Z,5.32
2022-11-21T13:22:36.131Z,6.45
2022-11-21T13:25:10.202Z,6.23
2022-11-21T13:27:40.097Z,8.85
2022-11-21T13:30:07.326Z,6.88
2022-11-21T13:32:45.340Z,5.03
2022-11-21T13:35:38.381Z,8.02
2022-11-21T13:38:08.282Z,6.13
2022-11-21T13:40:39.796Z,7.18
2022-11-21T13:45:58.998Z,7.88
2022-11-21T13:48:34.762Z,5.93
2022-11-21T13:51:26.956Z,6.00
2022-11-21T13:56:34.931Z,5.20
2022-11-21T13:59:12.349Z,5.85
2022-11-21T14:01:48.512Z,5.50
2022-11-21T14:04:43.520Z,6.15
2022-11-21T14:07:24.717Z,7.13
2022-11-21T14:09:53.923Z,5.07
2022-11-21T14:12:44.660Z,5.85
2022-11-21T14:15:32.904Z,6.22
2022-11-21T14:18:01.417Z,5.32
2022-11-21T14:20:50.149Z,5.13
2022-11-21T14:23:20.222Z,5.82
2022-11-21T14:25:53.146Z,6.80
2022-11-21T14:28:34.896Z,6.85
2022-11-21T14:31:04.496Z,7.43
2022-11-21T14:33:32.694Z,5.68
2022-11-21T14:36:07.609Z,7.13
2022-11-21T14:39:07.445Z,7.30
2022-11-21T14:41:38.682Z,8.35
2022-11-21T14:44:15.087Z,6.10
2022-11-21T14:46:43.230Z,5.82
2022-11-21T14:49:16.684Z,7.85
2022-11-21T14:51:53.761Z,6.65
2022-11-21T14:54:28.602Z,8.05
2022-11-21T14:57:00.594Z,8.20
2022-11-21T14:59:33.005Z,5.57
2022-11-21T15:02:12.420Z,7.43
2022-11-21T15:04:42.894Z,9.05
2022-11-21T15:07:26.929Z,8.60
2022-11-21T15:12:48.329Z,6.40
2022-11-21T15:15:27.953Z,7.05
2022-11-21T15:21:03.346Z,6.75
2022-11-21T15:23:36.804Z,8.07
2022-11-21T15:26:04.596Z,9.07
2022-11-21T15:28:32.534Z,9.55
2022-11-21T15:31:15.145Z,10.10
2022-11-21T15:34:34.920Z,12.68
2022-11-21T15:37:12.145Z,8.90
2022-11-21T15:39:48.354Z,10.80
2022-11-21T15:42:50.234Z,9.00
2022-11-21T15:45:20.360Z,9.07
2022-11-21T15:47:48.701Z,9.52
2022-11-21T15:50:16.842Z,9.90
2022-11-21T15:52:48.993Z,12.30
2022-11-21T15:55:29.299Z,14.00
2022-11-21T15:57:56.941Z,14.32
2022-11-21T16:00:24.255Z,14.10
2022-11-21T16:02:51.835Z,16.17
2022-11-21T16:05:19.190Z,18.95
2022-11-21T16:07:48.617Z,16.48
2022-11-21T16:10:21.346Z,20.60
2022-11-21T16:12:53.459Z,16.05
2022-11-21T16:15:20.908Z,20.05
2022-11-21T16:17:48.158Z,13.00
2022-11-21T16:20:15.832Z,12.38
2022-11-21T16:22:47.755Z,10.70
2022-11-21T16:25:16.002Z,14.88
2022-11-21T16:27:43.249Z,15.88
2022-11-21T16:30:11.216Z,21.20
2022-11-21T16:32:38.479Z,16.05
2022-11-21T16:35:06.439Z,20.70
2022-11-21T16:37:34.274Z,21.00
2022-11-21T16:40:01.617Z,22.17
2022-11-21T16:42:29.130Z,25.35
2022-11-21T16:44:56.437Z,19.02
2022-11-21T16:47:25.580Z,17.92
2022-11-21T16:49:52.931Z,15.70
2022-11-21T16:52:20.366Z,21.90
2022-11-21T16:54:47.574Z,19.05
2022-11-21T16:57:14.939Z,17.45
2022-11-21T16:59:42.200Z,22.15
2022-11-21T17:02:12.455Z,26.42
2022-11-21T17:04:39.761Z,22.58
2022-11-21T17:07:09.546Z,22.63
2022-11-21T17:09:37.137Z,13.43
2022-11-21T17:12:04.833Z,15.90
2022-11-21T17:14:32.215Z,14.45
2022-11-21T17:16:59.670Z,12.43
2022-11-21T17:19:27.005Z,15.93
2022-11-21T17:21:54.466Z,15.02
2022-11-21T17:24:21.960Z,16.63
2022-11-21T17:26:49.241Z,14.50
2022-11-21T17:29:16.670Z,14.23
2022-11-21T17:31:44.141Z,11.27
2022-11-21T17:34:11.719Z,15.38
2022-11-21T17:36:39.147Z,13.07
2022-11-21T17:39:06.544Z,18.30
2022-11-21T17:41:33.892Z,13.27
2022-11-21T17:44:01.698Z,13.10
2022-11-21T17:46:29.153Z,18.08
2022-11-21T17:48:58.607Z,22.83
2022-11-21T17:51:29.672Z,15.15
2022-11-21T17:53:57.793Z,13.88
2022-11-21T17:56:28.459Z,12.57
2022-11-21T17:58:56.122Z,13.18
2022-11-21T18:01:23.856Z,13.75
2022-11-21T18:04:03.092Z,17.83
2022-11-21T18:06:37.868Z,17.90
2022-11-21T18:09:11.116Z,17.42
2022-11-21T18:11:40.430Z,20.60
2022-11-21T18:14:09.815Z,20.60
2022-11-21T18:16:39.082Z,21.00
2022-11-21T18:19:07.417Z,18.30
2022-11-21T18:21:38.400Z,19.63
2022-11-21T18:24:05.975Z,17.60
2022-11-21T18:26:36.523Z,16.40
2022-11-21T18:29:35.238Z,15.88
2022-11-21T18:31:54.234Z,16.65
2022-11-21T18:34:21.620Z,15.35
2022-11-21T18:36:49.135Z,14.85
2022-11-21T18:39:16.494Z,17.98
2022-11-21T18:41:44.244Z,17.88
2022-11-21T18:44:17.024Z,20.85
2022-11-21T18:46:48.201Z,25.50
2022-11-21T18:49:15.422Z,24.70
2022-11-21T18:51:42.880Z,25.92
2022-11-21T18:54:11.235Z,20.17
2022-11-21T18:56:39.761Z,16.67
2022-11-21T18:59:07.322Z,20.02
2022-11-21T19:01:36.269Z,18.13
2022-11-21T19:04:04.452Z,15.80
2022-11-21T19:06:32.368Z,18.40
2022-11-21T19:08:59.903Z,17.00
2022-11-21T19:11:29.454Z,17.45
2022-11-21T19:13:59.333Z,17.85
2022-11-21T19:16:27.946Z,13.90
2022-11-21T19:21:42.985Z,12.02
2022-11-21T19:24:15.914Z,15.63
2022-11-21T19:26:43.611Z,13.65
2022-11-21T19:29:11.130Z,12.73
2022-11-21T19:31:44.672Z,12.25
2022-11-21T19:34:14.735Z,13.77
2022-11-21T19:36:42.890Z,15.05
2022-11-21T19:39:10.692Z,11.52
2022-11-21T19:41:38.378Z,11.10
2022-11-21T19:44:05.929Z,12.75
2022-11-21T19:46:38.797Z,18.42
2022-11-21T19:49:07.313Z,19.08
2022-11-21T19:51:37.528Z,14.88
2022-11-21T19:54:06.673Z,18.65
2022-11-21T19:56:34.982Z,15.60
2022-11-21T19:59:02.446Z,17.77
2022-11-21T20:01:32.295Z,12.43
2022-11-21T20:04:02.301Z,11.98
2022-11-21T20:06:38.836Z,10.40
2022-11-21T20:09:15.722Z,11.73
2022-11-21T20:11:45.062Z,10.30
2022-11-21T20:14:21.460Z,11.43
2022-11-21T20:16:50.544Z,15.38
2022-11-21T20:19:19.937Z,13.10
2022-11-21T20:21:47.910Z,14.38
2022-11-21T20:24:15.708Z,13.07
2022-11-21T20:26:43.628Z,13.65
2022-11-21T20:29:13.895Z,13.23
2022-11-21T20:31:41.840Z,16.10
2022-11-21T20:34:14.940Z,17.90
2022-11-21T20:36:43.063Z,16.27
2022-11-21T20:39:18.285Z,13.20
2022-11-21T20:41:47.142Z,12.52
2022-11-21T20:45:20.366Z,13.68
2022-11-21T20:47:08.673Z,15.88
2022-11-21T20:49:36.159Z,19.35
2022-11-21T20:54:50.976Z,12.05
2022-11-21T20:57:18.439Z,12.40
2022-11-21T20:59:45.905Z,10.25
2022-11-21T21:02:14.490Z,12.50
2022-11-21T21:04:42.399Z,12.63
2022-11-21T21:07:10.467Z,11.38
2022-11-21T21:09:37.823Z,13.50
2022-11-21T21:12:05.815Z,15.75
2022-11-21T21:14:33.063Z,13.40
2022-11-21T21:17:00.452Z,12.43
2022-11-21T21:19:28.008Z,10.18
2022-11-21T21:21:55.650Z,9.85
2022-11-21T21:24:22.930Z,13.15
2022-11-21T21:26:50.539Z,15.27
2022-11-21T21:29:20.413Z,14.05
2022-11-21T21:31:51.457Z,12.77
2022-11-21T21:34:23.480Z,8.55
2022-11-21T21:36:51.586Z,8.40
2022-11-21T21:39:18.980Z,10.95
2022-11-21T21:41:47.237Z,12.70
2022-11-21T21:44:15.590Z,11.75
2022-11-21T21:46:43.069Z,11.27
2022-11-21T21:49:10.789Z,13.73
2022-11-21T21:51:38.251Z,11.65
2022-11-21T21:54:06.639Z,13.35
2022-11-21T21:56:35.200Z,14.48
2022-11-21T21:59:02.576Z,13.30
2022-11-21T22:01:31.602Z,10.43
2022-11-21T22:04:03.957Z,12.88
2022-11-21T22:06:33.966Z,9.15
2022-11-21T22:09:01.676Z,11.07
2022-11-21T22:11:31.262Z,11.93
2022-11-21T22:14:01.278Z,10.82
2022-11-21T22:16:29.566Z,10.25
2022-11-21T22:18:57.289Z,14.60
2022-11-21T22:21:25.036Z,12.00
2022-11-21T22:26:39.645Z,12.50
2022-11-21T22:29:07.400Z,13.13
2022-11-21T22:31:34.844Z,18.30
2022-11-21T22:34:02.134Z,13.00
2022-11-21T22:36:29.474Z,16.80
2022-11-21T22:38:57.004Z,16.17
2022-11-21T22:41:26.502Z,12.90
2022-11-21T22:43:56.027Z,12.85
2022-11-21T22:46:24.949Z,14.63
2022-11-21T22:48:52.262Z,17.55
2022-11-21T22:51:25.593Z,26.70
2022-11-21T22:53:53.233Z,22.95
2022-11-21T22:56:22.695Z,16.48
2022-11-21T22:58:50.548Z,15.38
2022-11-21T23:01:22.815Z,15.85
2022-11-21T23:03:50.339Z,12.63
2022-11-21T23:06:23.843Z,13.82
2022-11-21T23:08:54.777Z,11.43
2022-11-21T23:11:27.983Z,13.88
2022-11-21T23:13:56.362Z,13.23
2022-11-21T23:16:24.480Z,14.25
2022-11-21T23:18:56.742Z,16.85
2022-11-21T23:21:24.627Z,12.95
2022-11-21T23:23:52.232Z,12.95
2022-11-21T23:26:20.398Z,15.02
2022-11-21T23:28:47.826Z,16.70
2022-11-21T23:31:15.135Z,14.07
2022-11-21T23:33:42.501Z,14.45
2022-11-21T23:36:09.785Z,17.15
2022-11-21T23:38:37.699Z,12.75
2022-11-21T23:41:04.901Z,11.52
2022-11-21T23:43:32.265Z,10.73
2022-11-21T23:45:59.665Z,12.40
2022-11-21T23:48:27.561Z,14.13
2022-11-21T23:50:55.169Z,12.50
2022-11-21T23:53:22.513Z,12.30
2022-11-21T23:55:50.065Z,11.40
2022-11-21T23:58:17.479Z,11.00
